ASD weather

Andros Town Airport
Nicholls Town and Berry Islands, Bahamas

Public forecast

Using degrees Celsius for public forecast. Weather courtesy of forecast.io.

Closest aviation weather report (METAR) to Andros Town Airport

Closest report is Lynden Pindling International Airport, 27.2 nm (50.4 km) NE. Retrieved 2019/12/09 04:00 UTC (44 minutes ago):

MYNN 090400Z 10004KT 070V130 9999 FEW025 23/19 A3015

Closest aviation forecast (TAF) to Andros Town Airport

Closest forecast is Lynden Pindling International Airport, 27.2 nm (50.4 km) NE. Retrieved 2019-12-09 00:49 UTC (4 hours ago):

TAF MYNN 082230Z 0900/0924 08005KT 9999 FEW030 BECMG 0912/0914 12012KT 9999 SCT030